Flight Track Log - Related Links

Times and Time Zones

All times are in EDT time to prevent confusion due to time zone crossing. See the AMF6902 flight status page for this flight to view local times or setup timezone preferences in your user account.

Time Position Orientation Groundspeed Altitude Reporting Facility
EDT Latitude Longitude Course Direction KTS MPH feet Rate Location/Type
Tue 06:18:00 PM 14.7591 -68.5216 33° Northeast  Level Estimated
Tue 06:19:00 PM 14.8141 -68.4847 33° Northeast  Level Estimated
Tue 06:20:00 PM 14.8692 -68.4479 33° Northeast  Level Estimated
Tue 06:21:00 PM 14.9242 -68.4109 33° Northeast  Level Estimated
Tue 06:22:00 PM 14.9793 -68.3740 33° Northeast  Level Estimated
Tue 06:23:00 PM 15.0343 -68.3371 33° Northeast  Level Estimated
Tue 06:24:00 PM 15.0893 -68.3001 33° Northeast  Level Estimated
Tue 06:25:00 PM 15.1444 -68.2631 33° Northeast  Level Estimated
Tue 06:26:00 PM 15.1994 -68.2261 33° Northeast  Level Estimated
Tue 06:27:00 PM 15.2544 -68.1891 33° Northeast  Level Estimated
Tue 06:28:00 PM 15.3094 -68.1520 33° Northeast  Level Estimated
Tue 06:29:00 PM 15.3644 -68.1150 33° Northeast  Level Estimated
Tue 06:30:00 PM 15.4194 -68.0779 33° Northeast  Level Estimated
Tue 06:31:00 PM 15.4744 -68.0408 33° Northeast  Level Estimated
Tue 06:32:00 PM 15.5294 -68.0037 33° Northeast  Level Estimated
Tue 06:33:00 PM 15.5844 -67.9665 33° Northeast  Level Estimated
Tue 06:34:00 PM 15.6393 -67.9294 33° Northeast  Level Estimated
Tue 06:35:00 PM 15.6943 -67.8922 33° Northeast  Level Estimated
Tue 06:36:00 PM 15.7493 -67.8550 33° Northeast  Level Estimated
Tue 06:37:00 PM 15.8042 -67.8178 33° Northeast  Level Estimated
Tue 06:38:00 PM 15.8592 -67.7805 33° Northeast  Level Estimated
Tue 06:39:00 PM 15.9141 -67.7433 33° Northeast  Level Estimated
Tue 06:40:00 PM 15.9690 -67.7060 33° Northeast  Level Estimated
Tue 06:41:00 PM 16.0240 -67.6687 33° Northeast  Level Estimated
Tue 06:42:00 PM 16.0789 -67.6313 33° Northeast  Level Estimated
Tue 06:43:00 PM 16.1338 -67.5940 33° Northeast  Level Estimated
Tue 06:44:00 PM 16.1887 -67.5566 33° Northeast  Level Estimated
Tue 06:45:00 PM 16.2436 -67.5192 33° Northeast  Level Estimated
Tue 06:46:00 PM 16.2985 -67.4818 33° Northeast  Level Estimated
Tue 06:47:00 PM 16.3534 -67.4444 33° Northeast  Level Estimated
Tue 06:48:00 PM 16.4083 -67.4070 33° Northeast  Level Estimated
Tue 06:49:00 PM 16.4631 -67.3695 33° Northeast  Level Estimated
Tue 06:49:24 PM 16.2667 -67.3000 33° Northeast 260 299 21,000  Level San Juan Center
Tue 06:50:00 PM 16.5180 -67.3320 33° Northeast  Level Estimated
Tue 06:50:24 PM 16.3333 -67.2833 13° North 260 299 21,000  Level San Juan Center
Tue 06:51:00 PM 16.5729 -67.2945 33° Northeast  Level Estimated
Tue 06:51:25 PM 16.4000 -67.2500 26° Northeast 270 311 21,000  Level San Juan Center
Tue 06:52:00 PM 16.6277 -67.2570 33° Northeast  Level Estimated
Tue 06:52:25 PM 16.4667 -67.2167 26° Northeast 260 299 21,000  Level San Juan Center
Tue 06:53:00 PM 16.6826 -67.2194 33° Northeast  Level Estimated
Tue 06:53:25 PM 16.5333 -67.2000 13° North 260 299 21,000  Level San Juan Center
Tue 06:54:00 PM 16.7374 -67.1818 33° Northeast  Level Estimated
Tue 06:54:26 PM 16.6167 -67.1667 21° North 260 299 21,000  Level San Juan Center
Tue 06:55:26 PM 16.6833 -67.1333 26° Northeast 260 299 21,000  Level San Juan Center
Tue 06:56:27 PM 16.7500 -67.1167 13° North 250 288 21,000  Level San Juan Center
Tue 06:57:27 PM 16.8167 -67.0833 26° Northeast 260 299 21,000  Level San Juan Center
Tue 06:58:27 PM 16.8833 -67.0500 26° Northeast 260 299 21,000  Level San Juan Center
Tue 06:59:27 PM 16.9500 -67.0333 13° North 260 299 21,000  Level San Juan Center
Tue 07:00:28 PM 17.0167 -67.0000 26° Northeast 260 299 21,000  Level San Juan Center
Tue 07:01:28 PM 17.0833 -66.9667 26° Northeast 250 288 21,000  Level San Juan Center
Tue 07:02:28 PM 17.1500 -66.9500 13° North 260 299 21,000  Level San Juan Center
Tue 07:03:29 PM 17.2167 -66.9167 26° Northeast 250 288 21,000 -595 Level San Juan Center
Tue 07:06:30 PM 17.4333 -66.8333 20° North 280 322 18,600 -921 Descending San Juan Center
Tue 07:07:30 PM 17.5167 -66.7833 30° Northeast 280 322 17,300 -1,260 Descending San Juan Center
Tue 07:09:31 PM 17.6500 -66.7333 20° North 270 311 14,800 -1,170 Descending San Juan Center
Tue 07:11:31 PM 17.8000 -66.6667 23° Northeast 280 322 12,600 -1,167 Descending San Juan Center
Tue 07:12:31 PM 17.8667 -66.6500 13° North 270 311 11,300 -1,091 Descending San Juan Center
Tue 07:13:32 PM 17.9333 -66.6167 25° Northeast 270 311 10,400 -992 Descending San Juan Center
Tue 07:14:32 PM 18.0000 -66.5833 25° Northeast 270 311 9,300 -900 Descending San Juan Center
Tue 07:15:32 PM 18.0833 -66.5500 21° North 260 299 8,600 -793 Descending San Juan Center
Tue 07:16:33 PM 18.1500 -66.5333 13° North 260 299 7,700 -793 Descending San Juan Center
Tue 07:17:33 PM 18.2167 -66.5000 25° Northeast 260 299 7,000 -350 Descending San Juan Center
Tue 07:18:33 PM 18.2500 -66.4500 55° Northeast 230 265 7,000 50 Level San Juan Center
Tue 07:19:34 PM 18.3167 -66.4333 13° North 230 265 7,100 50 Climbing San Juan Center
Tue 07:20:34 PM 18.3833 -66.4333 360° North 230 265 7,100 -50 Level San Juan Center
Tue 07:21:34 PM 18.4500 -66.4167 13° North 240 276 7,000 -50 Descending San Juan Center
Tue 07:22:35 PM 18.5000 -66.4167 360° North 230 265 7,000 50 Level San Juan Center
Tue 07:23:35 PM 18.5000 -66.3667 90° East 210 242 7,100 -200 Climbing San Juan Center
Tue 07:24:35 PM 18.4833 -66.3167 109° East 200 230 6,600 -900 Descending San Juan Center
Tue 07:25:35 PM 18.4500 -66.2667 125° Southeast 190 219 5,300 -1,500 Descending San Juan Center
Tue 07:26:35 PM 18.4167 -66.2167 125° Southeast 190 219 3,600 -1,488 Descending San Juan Center
Tue 07:27:36 PM 18.4333 -66.1500 75° East 180 207 2,300 -992 Descending San Juan Center
Tue 07:28:36 PM 18.4333 -66.1167 90° East 150 173 1,600 -550 Descending San Juan Center
Tue 07:29:36 PM 18.4333 -66.0667 90° East 110 127 1,200 -496 Descending San Juan Center
Tue 07:30:37 PM 18.4333 -66.0333 90° East 110 127 600 -590 Descending San Juan Center

Login

Don't have an account? Register now (free) for customized features, flight alerts, and more!